createdAt,value
2019-02-18T00:01:18.465Z,1.24
2019-02-18T00:03:44.327Z,1.26
2019-02-18T00:06:10.482Z,1.27
2019-02-18T00:08:36.354Z,1.27
2019-02-18T00:11:02.327Z,1.28
2019-02-18T00:13:28.335Z,1.28
2019-02-18T00:15:54.189Z,1.00
2019-02-18T00:18:20.048Z,1.31
2019-02-18T00:20:46.200Z,1.32
2019-02-18T00:23:12.091Z,1.32
2019-02-18T00:25:37.938Z,1.31
2019-02-18T00:28:04.019Z,1.32
2019-02-18T00:30:29.846Z,1.33
2019-02-18T00:32:55.690Z,1.35
2019-02-18T00:35:21.689Z,1.34
2019-02-18T00:37:47.530Z,1.33
2019-02-18T00:40:13.484Z,1.33
2019-02-18T00:42:39.491Z,1.33
2019-02-18T00:45:11.559Z,1.35
2019-02-18T00:47:37.389Z,1.35
2019-02-18T00:50:04.537Z,1.35
2019-02-18T00:52:30.410Z,1.36
2019-02-18T00:54:56.282Z,1.35
2019-02-18T00:57:22.357Z,1.35
2019-02-18T00:59:48.227Z,1.35
2019-02-18T01:02:14.120Z,1.34
2019-02-18T01:04:40.165Z,1.34
2019-02-18T01:07:05.992Z,1.34
2019-02-18T01:09:31.935Z,1.34
2019-02-18T01:11:57.970Z,1.33
2019-02-18T01:14:23.854Z,1.34
2019-02-18T01:16:49.859Z,1.36
2019-02-18T01:19:15.903Z,1.37
2019-02-18T01:21:41.776Z,1.37
2019-02-18T01:24:07.643Z,1.37
2019-02-18T01:26:33.717Z,1.36
2019-02-18T01:28:59.642Z,1.37
2019-02-18T01:31:25.511Z,1.35
2019-02-18T01:33:51.476Z,1.35
2019-02-18T01:36:17.478Z,1.34
2019-02-18T01:38:43.483Z,1.36
2019-02-18T01:41:09.508Z,1.34
2019-02-18T01:43:35.360Z,1.33
2019-02-18T01:46:01.212Z,1.35
2019-02-18T01:48:27.297Z,1.36
2019-02-18T01:50:53.184Z,1.35
2019-02-18T01:53:19.055Z,1.34
2019-02-18T01:55:45.102Z,1.33
2019-02-18T01:58:10.967Z,1.30
2019-02-18T02:00:37.005Z,1.29
2019-02-18T02:03:03.016Z,1.27
2019-02-18T02:05:28.895Z,1.27
2019-02-18T02:07:56.616Z,1.27
2019-02-18T02:10:22.821Z,1.27
2019-02-18T02:12:48.869Z,1.27
2019-02-18T02:15:25.389Z,1.25
2019-02-18T02:17:51.229Z,1.24
2019-02-18T02:20:17.115Z,1.23
2019-02-18T02:22:43.268Z,1.19
2019-02-18T02:25:09.163Z,1.15
2019-02-18T02:27:35.124Z,1.13
2019-02-18T02:30:01.292Z,1.13
2019-02-18T02:32:27.123Z,1.13
2019-02-18T02:34:53.017Z,1.15
2019-02-18T02:37:18.948Z,1.14
2019-02-18T02:39:44.929Z,1.16
2019-02-18T02:42:10.961Z,1.16
2019-02-18T02:44:37.076Z,1.17
2019-02-18T02:47:02.906Z,1.17
2019-02-18T02:49:28.847Z,1.20
2019-02-18T02:51:54.809Z,1.20
2019-02-18T02:54:20.673Z,1.21
2019-02-18T02:56:46.559Z,1.22
2019-02-18T02:59:12.827Z,1.22
2019-02-18T03:01:38.709Z,1.21
2019-02-18T03:04:04.542Z,1.21
2019-02-18T03:06:30.580Z,1.21
2019-02-18T03:08:56.471Z,1.20
2019-02-18T03:11:22.356Z,1.19
2019-02-18T03:13:48.413Z,1.20
2019-02-18T03:16:14.281Z,1.18
2019-02-18T03:18:40.143Z,1.17
2019-02-18T03:21:06.186Z,1.17
2019-02-18T03:23:32.020Z,1.19
2019-02-18T03:25:57.857Z,1.19
2019-02-18T03:28:25.805Z,1.21
2019-02-18T03:30:56.608Z,1.21
2019-02-18T03:33:27.242Z,1.22
2019-02-18T03:35:53.128Z,1.23
2019-02-18T03:38:18.992Z,1.25
2019-02-18T03:40:45.027Z,1.24
2019-02-18T03:43:10.988Z,1.24
2019-02-18T03:45:36.863Z,1.25
2019-02-18T03:48:03.033Z,1.25
2019-02-18T03:50:28.885Z,1.26
2019-02-18T03:52:54.814Z,1.27
2019-02-18T03:55:20.871Z,1.28
2019-02-18T03:57:46.735Z,1.28
2019-02-18T04:00:12.724Z,1.28
2019-02-18T04:02:38.786Z,1.29
2019-02-18T04:05:06.145Z,1.30
2019-02-18T04:07:31.996Z,1.29
2019-02-18T04:09:58.063Z,1.31
2019-02-18T04:12:23.970Z,1.29
2019-02-18T04:14:49.960Z,1.31
2019-02-18T04:17:16.072Z,1.32
2019-02-18T04:19:41.926Z,1.32
2019-02-18T04:22:07.793Z,1.34
2019-02-18T04:24:33.776Z,1.36
2019-02-18T04:26:59.628Z,1.38
2019-02-18T04:29:25.523Z,1.40
2019-02-18T04:31:51.845Z,1.42
2019-02-18T04:34:17.709Z,1.45
2019-02-18T04:36:43.560Z,1.47
2019-02-18T04:39:09.609Z,1.49
2019-02-18T04:41:35.519Z,1.49
2019-02-18T04:44:01.461Z,1.49
2019-02-18T04:46:27.537Z,1.51
2019-02-18T04:48:53.396Z,1.52
2019-02-18T04:51:19.254Z,1.54
2019-02-18T04:53:45.198Z,1.56
2019-02-18T04:56:11.047Z,1.56
2019-02-18T04:58:36.886Z,1.59
2019-02-18T05:01:03.086Z,1.60
2019-02-18T05:03:29.161Z,1.61
2019-02-18T05:05:55.036Z,1.62
2019-02-18T05:08:21.055Z,1.63
2019-02-18T05:10:46.925Z,1.58
2019-02-18T05:13:12.818Z,1.66
2019-02-18T05:15:40.327Z,1.68
2019-02-18T05:18:06.520Z,1.71
2019-02-18T05:20:32.487Z,1.72
2019-02-18T05:22:58.533Z,1.71
2019-02-18T05:25:24.411Z,1.70
2019-02-18T05:27:50.263Z,1.70
2019-02-18T05:30:16.254Z,1.71
2019-02-18T05:32:42.145Z,1.74
2019-02-18T05:35:08.119Z,1.75
2019-02-18T05:37:34.192Z,1.76
2019-02-18T05:40:00.052Z,1.77
2019-02-18T05:42:25.889Z,1.80
2019-02-18T05:44:51.936Z,1.80
2019-02-18T05:47:17.794Z,1.79
2019-02-18T05:49:43.648Z,1.79
2019-02-18T05:52:09.596Z,1.81
2019-02-18T05:54:35.571Z,1.81
2019-02-18T05:57:01.545Z,1.82
2019-02-18T05:59:27.567Z,1.83
2019-02-18T06:01:53.425Z,1.85
2019-02-18T06:04:19.309Z,1.86
2019-02-18T06:06:45.288Z,1.87
2019-02-18T06:09:11.147Z,1.88
2019-02-18T06:11:37.078Z,1.89
2019-02-18T06:14:03.145Z,1.87
2019-02-18T06:16:29.016Z,1.88
2019-02-18T06:18:54.872Z,1.91
2019-02-18T06:21:20.947Z,1.92
2019-02-18T06:23:46.797Z,1.92
2019-02-18T06:26:12.719Z,1.92
2019-02-18T06:28:38.739Z,1.92
2019-02-18T06:31:04.599Z,1.93
2019-02-18T06:33:30.462Z,1.97
2019-02-18T06:35:56.501Z,1.99
2019-02-18T06:38:22.376Z,2.02
2019-02-18T06:40:48.248Z,2.04
2019-02-18T06:43:14.257Z,2.05
2019-02-18T06:45:53.890Z,2.06
2019-02-18T06:48:24.727Z,2.07
2019-02-18T06:50:50.582Z,2.09
2019-02-18T06:53:16.460Z,2.11
2019-02-18T06:55:42.428Z,2.14
2019-02-18T06:58:12.825Z,2.14
2019-02-18T07:00:49.857Z,2.19
2019-02-18T07:03:20.480Z,2.21
2019-02-18T07:05:51.046Z,2.23
2019-02-18T07:08:30.760Z,2.25
2019-02-18T07:11:01.263Z,2.26
2019-02-18T07:13:27.127Z,2.28
2019-02-18T07:15:53.004Z,2.30
2019-02-18T07:18:19.047Z,2.32
2019-02-18T07:20:44.893Z,2.35
2019-02-18T07:23:11.012Z,2.37
2019-02-18T07:25:37.076Z,2.38
2019-02-18T07:28:03.037Z,2.41
2019-02-18T07:30:28.924Z,2.43
2019-02-18T07:32:54.967Z,2.43
2019-02-18T07:35:20.865Z,2.43
2019-02-18T07:37:46.726Z,2.45
2019-02-18T07:40:12.721Z,2.44
2019-02-18T07:42:38.593Z,2.48
2019-02-18T07:45:05.782Z,2.50
2019-02-18T07:47:31.943Z,2.53
2019-02-18T07:49:57.901Z,2.54
2019-02-18T07:52:23.760Z,2.57
2019-02-18T07:54:50.001Z,2.57
2019-02-18T07:57:15.863Z,2.58
2019-02-18T07:59:42.895Z,2.59
2019-02-18T08:02:08.989Z,2.60
2019-02-18T08:04:34.864Z,2.60
2019-02-18T08:07:00.821Z,2.61
2019-02-18T08:09:26.804Z,2.62
2019-02-18T08:11:52.637Z,2.64
2019-02-18T08:14:18.506Z,2.65
2019-02-18T08:16:44.585Z,2.67
2019-02-18T08:19:10.536Z,2.69
2019-02-18T08:21:36.428Z,2.71
2019-02-18T08:24:02.603Z,2.72
2019-02-18T08:26:28.501Z,2.73
2019-02-18T08:28:54.462Z,2.74
2019-02-18T08:31:20.501Z,2.76
2019-02-18T08:33:46.354Z,2.76
2019-02-18T08:36:12.258Z,2.74
2019-02-18T08:38:38.235Z,2.74
2019-02-18T08:41:04.240Z,2.75
2019-02-18T08:43:30.097Z,2.77
2019-02-18T08:45:56.085Z,2.78
2019-02-18T08:48:24.066Z,2.78
2019-02-18T08:50:49.740Z,2.78
2019-02-18T08:53:15.751Z,2.78
2019-02-18T08:55:41.653Z,2.81
2019-02-18T08:58:07.627Z,2.83
2019-02-18T09:00:33.629Z,2.87
2019-02-18T09:02:59.504Z,2.88
2019-02-18T09:05:25.371Z,2.90
2019-02-18T09:07:51.424Z,2.88
2019-02-18T09:10:17.316Z,2.90
2019-02-18T09:12:43.176Z,2.89
2019-02-18T09:15:09.682Z,2.89
2019-02-18T09:17:35.643Z,2.91
2019-02-18T09:20:01.614Z,2.91
2019-02-18T09:22:45.782Z,2.93
2019-02-18T09:25:13.519Z,2.95
2019-02-18T09:27:39.360Z,2.96
2019-02-18T09:30:06.632Z,2.97
2019-02-18T09:32:32.517Z,2.97
2019-02-18T09:35:02.032Z,2.97
2019-02-18T09:37:26.212Z,2.99
2019-02-18T09:39:52.051Z,3.02
2019-02-18T09:42:18.023Z,3.05
2019-02-18T09:44:44.074Z,3.10
2019-02-18T09:47:09.942Z,3.13
2019-02-18T09:49:35.816Z,3.15
2019-02-18T09:52:01.896Z,3.15
2019-02-18T09:54:27.729Z,3.15
2019-02-18T09:56:53.823Z,3.16
2019-02-18T09:59:19.767Z,3.18
2019-02-18T10:01:45.642Z,3.20
2019-02-18T10:04:11.643Z,3.22
2019-02-18T10:06:37.679Z,3.25
2019-02-18T10:09:04.161Z,3.29
2019-02-18T10:11:30.014Z,3.30
2019-02-18T10:13:55.973Z,3.32
2019-02-18T10:16:21.976Z,3.34
2019-02-18T10:18:47.939Z,3.37
2019-02-18T10:21:13.939Z,3.38
2019-02-18T10:23:39.905Z,3.37
2019-02-18T10:26:05.782Z,3.35
2019-02-18T10:28:31.931Z,3.35
2019-02-18T10:30:57.801Z,3.34
2019-02-18T10:33:23.777Z,3.32
2019-02-18T10:35:49.720Z,3.33
2019-02-18T10:38:15.596Z,3.33
2019-02-18T10:40:41.450Z,3.26
2019-02-18T10:43:07.508Z,3.36
2019-02-18T10:45:33.369Z,3.37
2019-02-18T10:47:59.257Z,3.41
2019-02-18T10:50:25.414Z,3.43
2019-02-18T10:52:51.256Z,3.47
2019-02-18T10:55:17.432Z,3.49
2019-02-18T10:57:43.608Z,3.49
2019-02-18T11:00:13.223Z,3.49
2019-02-18T11:02:39.070Z,3.48
2019-02-18T11:05:06.813Z,3.50
2019-02-18T11:07:32.769Z,3.53
2019-02-18T11:09:58.625Z,3.53
2019-02-18T11:12:24.607Z,3.53
2019-02-18T11:14:50.462Z,3.51
2019-02-18T11:17:16.317Z,3.48
2019-02-18T11:19:42.329Z,3.45
2019-02-18T11:22:08.309Z,3.45
2019-02-18T11:24:34.381Z,3.43
2019-02-18T11:27:00.368Z,3.41
2019-02-18T11:29:26.224Z,3.12
2019-02-18T11:31:52.155Z,3.39
2019-02-18T11:34:18.244Z,3.40
2019-02-18T11:36:44.174Z,3.43
2019-02-18T11:39:10.460Z,3.44
2019-02-18T11:41:36.537Z,3.45
2019-02-18T11:44:02.433Z,3.43
2019-02-18T11:46:28.466Z,3.44
2019-02-18T11:48:54.411Z,3.44
2019-02-18T11:51:20.286Z,3.47
2019-02-18T11:53:46.137Z,3.48
2019-02-18T11:56:12.161Z,3.51
2019-02-18T11:58:38.040Z,3.53
2019-02-18T12:01:04.218Z,3.54
2019-02-18T12:03:30.458Z,3.58
2019-02-18T12:05:56.411Z,3.58
2019-02-18T12:08:22.315Z,3.58
2019-02-18T12:10:48.396Z,3.58
2019-02-18T12:13:14.279Z,3.59
2019-02-18T12:15:40.281Z,3.58
2019-02-18T12:18:06.394Z,3.58
2019-02-18T12:20:32.470Z,3.58
2019-02-18T12:22:58.441Z,3.61
2019-02-18T12:25:24.483Z,3.61
2019-02-18T12:27:50.340Z,3.59
2019-02-18T12:30:16.736Z,3.59
2019-02-18T12:32:42.894Z,3.61
2019-02-18T12:35:08.907Z,3.60
2019-02-18T12:37:34.853Z,3.58
2019-02-18T12:40:00.988Z,3.59
2019-02-18T12:42:26.857Z,3.59
2019-02-18T12:44:53.141Z,3.59
2019-02-18T12:47:19.252Z,3.61
2019-02-18T12:49:45.183Z,3.61
2019-02-18T12:52:11.151Z,3.63
2019-02-18T12:54:37.164Z,3.63
2019-02-18T12:57:03.158Z,3.64
2019-02-18T12:59:29.350Z,3.66
2019-02-18T13:01:55.546Z,3.66
2019-02-18T13:04:21.432Z,3.66
2019-02-18T13:06:47.518Z,3.68
2019-02-18T13:09:13.846Z,3.40
2019-02-18T13:11:39.723Z,3.71
2019-02-18T13:14:05.581Z,3.73
2019-02-18T13:16:31.636Z,3.74
2019-02-18T13:18:57.542Z,3.73
2019-02-18T13:21:23.634Z,3.71
2019-02-18T13:23:49.803Z,3.70
2019-02-18T13:26:15.760Z,3.70
2019-02-18T13:28:41.700Z,3.70
2019-02-18T13:31:07.819Z,3.68
2019-02-18T13:33:33.920Z,3.68
2019-02-18T13:35:59.803Z,3.72
2019-02-18T13:38:25.829Z,3.76
2019-02-18T13:40:51.729Z,3.81
2019-02-18T13:43:17.684Z,3.85
2019-02-18T13:45:43.908Z,3.78
2019-02-18T13:48:09.806Z,3.88
2019-02-18T13:50:35.660Z,3.89
2019-02-18T13:53:01.927Z,3.90
2019-02-18T13:55:27.878Z,3.93
2019-02-18T13:57:53.755Z,3.94
2019-02-18T14:00:20.666Z,3.93
2019-02-18T14:02:46.971Z,3.90
2019-02-18T14:05:12.899Z,3.89
2019-02-18T14:07:38.956Z,3.86
2019-02-18T14:10:05.561Z,3.86
2019-02-18T14:12:31.928Z,3.85
2019-02-18T14:14:58.053Z,3.84
2019-02-18T14:17:24.022Z,3.86
2019-02-18T14:19:49.861Z,3.88
2019-02-18T14:22:16.072Z,3.90
2019-02-18T14:24:41.999Z,3.94
2019-02-18T14:27:07.941Z,3.94
2019-02-18T14:29:33.943Z,3.94
2019-02-18T14:31:59.835Z,3.92
2019-02-18T14:34:25.769Z,3.93
2019-02-18T14:36:51.958Z,3.96
2019-02-18T14:39:22.307Z,3.99
2019-02-18T14:41:48.165Z,4.03
2019-02-18T14:44:14.169Z,4.06
2019-02-18T14:46:40.082Z,4.07
2019-02-18T14:49:06.144Z,4.05
2019-02-18T14:51:32.297Z,3.99
2019-02-18T14:53:58.303Z,3.96
2019-02-18T14:56:24.238Z,3.95
2019-02-18T14:58:50.181Z,3.92
2019-02-18T15:01:16.194Z,3.89
2019-02-18T15:03:42.180Z,3.86
2019-02-18T15:06:08.236Z,3.84
2019-02-18T15:08:34.121Z,3.82
2019-02-18T15:11:00.081Z,3.84
2019-02-18T15:13:26.435Z,3.83
2019-02-18T15:15:52.419Z,3.83
2019-02-18T15:18:18.265Z,3.84
2019-02-18T15:20:44.271Z,3.86
2019-02-18T15:23:10.340Z,3.87
2019-02-18T15:25:36.370Z,3.86
2019-02-18T15:28:02.513Z,3.87
2019-02-18T15:30:28.513Z,3.89
2019-02-18T15:32:54.770Z,3.92
2019-02-18T15:35:20.896Z,3.94
2019-02-18T15:37:46.785Z,3.92
2019-02-18T15:40:14.632Z,3.94
2019-02-18T15:42:42.564Z,3.95
2019-02-18T15:45:08.607Z,3.98
2019-02-18T15:47:34.571Z,3.99
2019-02-18T15:50:00.520Z,4.01
2019-02-18T15:52:26.801Z,4.02
2019-02-18T15:54:52.660Z,4.02
2019-02-18T15:57:18.716Z,4.04
2019-02-18T15:59:44.810Z,4.04
2019-02-18T16:02:10.665Z,4.06
2019-02-18T16:04:36.636Z,4.08
2019-02-18T16:07:02.596Z,4.05
2019-02-18T16:09:28.589Z,4.02
2019-02-18T16:11:55.006Z,3.71
2019-02-18T16:14:20.893Z,3.95
2019-02-18T16:16:46.769Z,3.92
2019-02-18T16:19:13.800Z,3.90
2019-02-18T16:21:39.669Z,3.90
2019-02-18T16:24:05.530Z,3.89
2019-02-18T16:26:31.571Z,3.87
2019-02-18T16:28:57.462Z,3.83
2019-02-18T16:31:23.412Z,3.83
2019-02-18T16:33:49.517Z,3.83
2019-02-18T16:36:15.500Z,3.81
2019-02-18T16:38:41.493Z,3.78
2019-02-18T16:41:07.552Z,3.75
2019-02-18T16:43:33.720Z,3.73
2019-02-18T16:45:59.694Z,3.73
2019-02-18T16:48:26.652Z,3.72
2019-02-18T16:50:52.847Z,3.72
2019-02-18T16:53:18.696Z,3.71
2019-02-18T16:55:44.752Z,3.71
2019-02-18T16:58:10.647Z,3.71
2019-02-18T17:00:36.615Z,3.70
2019-02-18T17:03:02.756Z,3.71
2019-02-18T17:05:28.639Z,3.71
2019-02-18T17:07:54.494Z,3.72
2019-02-18T17:10:20.592Z,3.74
2019-02-18T17:12:46.757Z,3.74
2019-02-18T17:15:12.743Z,3.73
2019-02-18T17:17:38.850Z,3.73
2019-02-18T17:20:05.026Z,3.73
2019-02-18T17:22:31.024Z,3.72
2019-02-18T17:24:56.986Z,3.70
2019-02-18T17:27:22.863Z,3.70
2019-02-18T17:29:48.758Z,3.68
2019-02-18T17:32:14.781Z,3.67
2019-02-18T17:34:40.845Z,3.65
2019-02-18T17:37:06.735Z,3.61
2019-02-18T17:39:32.696Z,3.58
2019-02-18T17:41:58.556Z,3.51
2019-02-18T17:44:24.401Z,3.46
2019-02-18T17:46:50.505Z,3.43
2019-02-18T17:49:16.416Z,3.42
2019-02-18T17:51:42.416Z,3.39
2019-02-18T17:54:08.867Z,3.39
2019-02-18T17:56:34.859Z,3.39
2019-02-18T17:59:00.737Z,3.40
2019-02-18T18:01:26.770Z,3.40
2019-02-18T18:03:52.617Z,3.39
2019-02-18T18:06:18.480Z,3.39
2019-02-18T18:08:44.435Z,3.37
2019-02-18T18:11:10.308Z,3.35
2019-02-18T18:13:36.164Z,3.32
2019-02-18T18:16:02.526Z,3.30
2019-02-18T18:18:28.379Z,3.30
2019-02-18T18:20:54.238Z,3.32
2019-02-18T18:23:20.228Z,3.35
2019-02-18T18:25:46.080Z,3.37
2019-02-18T18:28:12.172Z,3.35
2019-02-18T18:30:38.214Z,3.37
2019-02-18T18:33:04.165Z,3.35
2019-02-18T18:35:30.334Z,3.35
2019-02-18T18:37:56.302Z,3.34
2019-02-18T18:40:22.248Z,3.37
2019-02-18T18:42:48.141Z,3.38
2019-02-18T18:45:15.698Z,3.38
2019-02-18T18:47:41.672Z,3.41
2019-02-18T18:50:09.452Z,3.41
2019-02-18T18:52:35.500Z,3.39
2019-02-18T18:55:01.653Z,3.37
2019-02-18T18:57:27.485Z,3.37
2019-02-18T18:59:53.485Z,3.39
2019-02-18T19:02:19.342Z,3.42
2019-02-18T19:04:45.216Z,3.44
2019-02-18T19:07:11.195Z,3.44
2019-02-18T19:09:37.052Z,3.48
2019-02-18T19:12:02.957Z,3.50
2019-02-18T19:14:29.081Z,3.50
2019-02-18T19:16:54.937Z,3.53
2019-02-18T19:19:20.823Z,3.55
2019-02-18T19:21:46.796Z,3.56
2019-02-18T19:24:12.672Z,3.56
2019-02-18T19:26:38.513Z,3.58
2019-02-18T19:29:04.689Z,3.56
2019-02-18T19:31:30.576Z,3.56
2019-02-18T19:33:56.541Z,3.58
2019-02-18T19:36:22.665Z,3.59
2019-02-18T19:38:48.646Z,3.59
2019-02-18T19:41:14.520Z,3.62
2019-02-18T19:43:40.579Z,3.62
2019-02-18T19:46:06.430Z,3.62
2019-02-18T19:48:32.264Z,3.63
2019-02-18T19:50:58.278Z,3.64
2019-02-18T19:53:24.582Z,3.66
2019-02-18T19:55:50.568Z,3.66
2019-02-18T19:58:16.719Z,3.68
2019-02-18T20:00:42.678Z,3.67
2019-02-18T20:03:08.797Z,3.64
2019-02-18T20:05:34.948Z,3.63
2019-02-18T20:08:00.904Z,3.63
2019-02-18T20:10:26.908Z,3.62
2019-02-18T20:12:53.154Z,3.60
2019-02-18T20:15:19.229Z,3.59
2019-02-18T20:17:45.223Z,3.58
2019-02-18T20:20:11.971Z,3.58
2019-02-18T20:22:37.939Z,3.56
2019-02-18T20:25:04.643Z,3.57
2019-02-18T20:27:30.650Z,3.58
2019-02-18T20:29:58.126Z,3.58
2019-02-18T20:32:24.169Z,3.55
2019-02-18T20:34:50.236Z,3.50
2019-02-18T20:37:16.100Z,3.48
2019-02-18T20:39:42.005Z,3.47
2019-02-18T20:42:07.971Z,3.47
2019-02-18T20:44:33.918Z,3.43
2019-02-18T20:46:59.799Z,3.40
2019-02-18T20:49:25.767Z,3.34
2019-02-18T20:51:51.847Z,3.37
2019-02-18T20:54:17.740Z,3.35
2019-02-18T20:56:43.668Z,3.35
2019-02-18T20:59:09.587Z,3.30
2019-02-18T21:01:35.638Z,3.27
2019-02-18T21:04:01.611Z,3.23
2019-02-18T21:06:27.481Z,3.21
2019-02-18T21:08:53.369Z,3.19
2019-02-18T21:11:19.715Z,3.18
2019-02-18T21:13:45.609Z,3.14
2019-02-18T21:16:11.575Z,3.13
2019-02-18T21:18:37.573Z,3.07
2019-02-18T21:21:03.501Z,3.04
2019-02-18T21:23:30.559Z,3.03
2019-02-18T21:25:56.522Z,3.03
2019-02-18T21:28:22.419Z,2.77
2019-02-18T21:30:48.692Z,3.06
2019-02-18T21:33:14.727Z,3.07
2019-02-18T21:35:40.557Z,3.06
2019-02-18T21:38:06.444Z,3.05
2019-02-18T21:40:32.617Z,3.05
2019-02-18T21:42:58.472Z,3.03
2019-02-18T21:45:24.455Z,3.03
2019-02-18T21:47:50.681Z,3.00
2019-02-18T21:50:16.924Z,2.97
2019-02-18T21:52:42.823Z,2.94
2019-02-18T21:55:10.060Z,2.93
2019-02-18T21:57:35.927Z,2.95
2019-02-18T22:00:02.689Z,2.94
2019-02-18T22:02:28.740Z,2.93
2019-02-18T22:04:54.825Z,2.90
2019-02-18T22:07:20.666Z,2.89
2019-02-18T22:09:47.019Z,2.88
2019-02-18T22:12:12.972Z,2.88
2019-02-18T22:14:38.909Z,2.88
2019-02-18T22:17:04.928Z,2.81
2019-02-18T22:19:30.762Z,2.86
2019-02-18T22:21:56.794Z,2.85
2019-02-18T22:24:22.995Z,2.85
2019-02-18T22:26:48.843Z,2.83
2019-02-18T22:29:14.737Z,2.81
2019-02-18T22:31:40.673Z,2.79
2019-02-18T22:34:06.855Z,2.78
2019-02-18T22:36:32.863Z,2.75
2019-02-18T22:38:58.875Z,2.73
2019-02-18T22:41:25.935Z,2.71
2019-02-18T22:43:51.803Z,2.69
2019-02-18T22:46:17.842Z,2.65
2019-02-18T22:48:43.920Z,2.62
2019-02-18T22:51:09.787Z,2.59
2019-02-18T22:53:35.827Z,2.58
2019-02-18T22:56:01.819Z,2.53
2019-02-18T22:58:27.707Z,2.47
2019-02-18T23:00:55.669Z,2.42
2019-02-18T23:03:21.765Z,2.40
2019-02-18T23:05:47.770Z,2.39
2019-02-18T23:08:13.825Z,2.40
2019-02-18T23:10:39.694Z,2.38
2019-02-18T23:13:05.659Z,2.35
2019-02-18T23:15:32.031Z,2.34
2019-02-18T23:17:57.892Z,2.34
2019-02-18T23:20:23.771Z,2.32
2019-02-18T23:22:49.928Z,2.29
2019-02-18T23:25:15.767Z,2.29
2019-02-18T23:27:41.754Z,2.30
2019-02-18T23:30:07.915Z,2.28
2019-02-18T23:32:33.779Z,2.26
2019-02-18T23:34:59.689Z,2.23
2019-02-18T23:37:26.049Z,2.23
2019-02-18T23:39:51.913Z,2.22
2019-02-18T23:42:17.769Z,2.20
2019-02-18T23:44:43.750Z,2.19
2019-02-18T23:47:09.592Z,2.18
2019-02-18T23:49:35.456Z,2.16
2019-02-18T23:52:01.580Z,2.15
2019-02-18T23:54:27.412Z,2.15
2019-02-18T23:56:53.273Z,2.14
2019-02-18T23:59:19.212Z,2.12
